UTY7242 YBCS-YBWP
Flight info
| Callsign | UTY7242 |
|---|---|
| Flight time | 1h 0m |
| Altitude | 38000 |
| Route | OVLET B473 WP |
| Aircraft | E190/M-SDGHIRWYZ/EB1 |
Departure
| Time | 2026-05-06 20:50 |
|---|---|
| Airport | Cairns International Airport (YBCS) |
Arrival
| Time | 2026-05-06 21:50 |
|---|---|
| Airport | Weipa Airport (YBWP) |
| Time | Latitude | Longitude | Altitude | Speed | Heading |
|---|---|---|---|---|---|
| 2026-05-06 20:25 | -16.87359 | 145.75169 | 19 ft | 0 kts | 157° |
| 2026-05-06 20:43 | -16.87342 | 145.75161 | 5 ft | 4 kts | 146° |
| 2026-05-06 20:43 | -16.87321 | 145.75144 | 7 ft | 4 kts | 139° |
| 2026-05-06 20:43 | -16.87303 | 145.75134 | 5 ft | 4 kts | 180° |
| 2026-05-06 20:43 | -16.87278 | 145.75139 | 6 ft | 4 kts | 220° |
| 2026-05-06 20:44 | -16.87264 | 145.75159 | 7 ft | 2 kts | 247° |
| 2026-05-06 20:44 | -16.87263 | 145.75160 | 7 ft | 0 kts | 247° |
| 2026-05-06 20:46 | -16.87263 | 145.75159 | 7 ft | 0 kts | 247° |
| 2026-05-06 20:47 | -16.87267 | 145.75151 | 7 ft | 2 kts | 247° |
| 2026-05-06 20:47 | -16.87277 | 145.75126 | 5 ft | 5 kts | 246° |
| 2026-05-06 20:47 | -16.87296 | 145.75083 | 6 ft | 8 kts | 245° |
| 2026-05-06 20:47 | -16.87322 | 145.75016 | 5 ft | 11 kts | 255° |
| 2026-05-06 20:48 | -16.87308 | 145.74934 | 6 ft | 13 kts | 291° |
| 2026-05-06 20:48 | -16.87256 | 145.74856 | 5 ft | 14 kts | 329° |
| 2026-05-06 20:48 | -16.87163 | 145.74816 | 6 ft | 15 kts | 337° |
| 2026-05-06 20:48 | -16.87065 | 145.74767 | 5 ft | 16 kts | 323° |
| 2026-05-06 20:49 | -16.87067 | 145.74662 | 4 ft | 17 kts | 246° |
| 2026-05-06 20:49 | -16.87122 | 145.74600 | 3 ft | 7 kts | 177° |
| 2026-05-06 20:49 | -16.87161 | 145.74616 | 4 ft | 21 kts | 156° |
| 2026-05-06 20:49 | -16.87511 | 145.74777 | 7 ft | 89 kts | 156° |
| 2026-05-06 20:50 | -16.88267 | 145.75121 | 19 ft | 146 kts | 156° |
| 2026-05-06 20:50 | -16.89211 | 145.75557 | 629 ft | 143 kts | 155° |
| 2026-05-06 20:50 | -16.90147 | 145.76040 | 1083 ft | 163 kts | 144° |
| 2026-05-06 20:50 | -16.90920 | 145.77031 | 1245 ft | 199 kts | 112° |
| 2026-05-06 20:51 | -16.90927 | 145.78507 | 1846 ft | 213 kts | 70° |
| 2026-05-06 20:51 | -16.89933 | 145.79663 | 2656 ft | 219 kts | 34° |
| 2026-05-06 20:51 | -16.88616 | 145.80450 | 3513 ft | 216 kts | 36° |
| 2026-05-06 20:51 | -16.87311 | 145.81302 | 4170 ft | 227 kts | 36° |
| 2026-05-06 20:52 | -16.85828 | 145.81971 | 4788 ft | 242 kts | 10° |
| 2026-05-06 20:52 | -16.84118 | 145.81695 | 5391 ft | 263 kts | 340° |
| 2026-05-06 20:52 | -16.82404 | 145.80845 | 5889 ft | 284 kts | 335° |
| 2026-05-06 20:52 | -16.80753 | 145.79656 | 6681 ft | 291 kts | 317° |
| 2026-05-06 20:53 | -16.79296 | 145.78161 | 7523 ft | 296 kts | 316° |
| 2026-05-06 20:53 | -16.77828 | 145.76698 | 8618 ft | 292 kts | 315° |
| 2026-05-06 20:53 | -16.76368 | 145.75243 | 9774 ft | 290 kts | 315° |
| 2026-05-06 20:53 | -16.74903 | 145.73792 | 10504 ft | 303 kts | 315° |
| 2026-05-06 20:54 | -16.73343 | 145.72239 | 11134 ft | 317 kts | 316° |
| 2026-05-06 20:54 | -16.71698 | 145.70616 | 11759 ft | 332 kts | 316° |
| 2026-05-06 20:54 | -16.69985 | 145.68931 | 12408 ft | 343 kts | 317° |
| 2026-05-06 20:54 | -16.68235 | 145.67212 | 13231 ft | 348 kts | 317° |
| 2026-05-06 20:55 | -16.66457 | 145.65468 | 14079 ft | 352 kts | 317° |
| 2026-05-06 20:55 | -16.64664 | 145.63712 | 14932 ft | 354 kts | 317° |
| 2026-05-06 20:55 | -16.62859 | 145.61945 | 15809 ft | 356 kts | 317° |
| 2026-05-06 20:55 | -16.61063 | 145.60186 | 16631 ft | 359 kts | 317° |
| 2026-05-06 20:56 | -16.59235 | 145.58394 | 17432 ft | 362 kts | 317° |
| 2026-05-06 20:56 | -16.57391 | 145.56585 | 18202 ft | 365 kts | 317° |
| 2026-05-06 20:56 | -16.55533 | 145.54761 | 18830 ft | 368 kts | 317° |
| 2026-05-06 20:56 | -16.53654 | 145.52916 | 19406 ft | 372 kts | 316° |
| 2026-05-06 20:57 | -16.51754 | 145.51048 | 19907 ft | 377 kts | 316° |
| 2026-05-06 20:57 | -16.49852 | 145.49179 | 20454 ft | 381 kts | 316° |
| 2026-05-06 20:57 | -16.47910 | 145.47270 | 21005 ft | 384 kts | 316° |
| 2026-05-06 20:57 | -16.45955 | 145.45347 | 21555 ft | 387 kts | 316° |
| 2026-05-06 20:58 | -16.43988 | 145.43413 | 22080 ft | 390 kts | 316° |
| 2026-05-06 20:58 | -16.42025 | 145.41482 | 22599 ft | 394 kts | 316° |
| 2026-05-06 20:58 | -16.40021 | 145.39512 | 23102 ft | 397 kts | 316° |
| 2026-05-06 20:58 | -16.37998 | 145.37523 | 23605 ft | 400 kts | 315° |
| 2026-05-06 20:59 | -16.35968 | 145.35526 | 24051 ft | 402 kts | 315° |
| 2026-05-06 20:59 | -16.33956 | 145.33549 | 24490 ft | 403 kts | 315° |
| 2026-05-06 20:59 | -16.31910 | 145.31539 | 24924 ft | 403 kts | 315° |
| 2026-05-06 20:59 | -16.29860 | 145.29528 | 25324 ft | 405 kts | 315° |
| 2026-05-06 21:00 | -16.27811 | 145.27512 | 25720 ft | 406 kts | 315° |
| 2026-05-06 21:00 | -16.25747 | 145.25482 | 26105 ft | 407 kts | 315° |
| 2026-05-06 21:00 | -16.23714 | 145.23469 | 26486 ft | 408 kts | 315° |
| 2026-05-06 21:00 | -16.21642 | 145.21437 | 26860 ft | 409 kts | 315° |
| 2026-05-06 21:01 | -16.19569 | 145.19401 | 27224 ft | 411 kts | 315° |
| 2026-05-06 21:01 | -16.17487 | 145.17356 | 27589 ft | 412 kts | 315° |
| 2026-05-06 21:01 | -16.15394 | 145.15298 | 27884 ft | 415 kts | 315° |
| 2026-05-06 21:01 | -16.13313 | 145.13253 | 28220 ft | 416 kts | 315° |
| 2026-05-06 21:02 | -16.11203 | 145.11178 | 28548 ft | 417 kts | 315° |
| 2026-05-06 21:02 | -16.09087 | 145.09100 | 28847 ft | 419 kts | 315° |
| 2026-05-06 21:02 | -16.06971 | 145.07018 | 29219 ft | 418 kts | 315° |
| 2026-05-06 21:02 | -16.04858 | 145.04945 | 29676 ft | 416 kts | 315° |
| 2026-05-06 21:03 | -16.02758 | 145.02887 | 30122 ft | 413 kts | 315° |
| 2026-05-06 21:03 | -16.00666 | 145.00835 | 30434 ft | 412 kts | 314° |
| 2026-05-06 21:03 | -15.98613 | 144.98817 | 30699 ft | 410 kts | 314° |
| 2026-05-06 21:03 | -15.96533 | 144.96776 | 30991 ft | 410 kts | 314° |
| 2026-05-06 21:04 | -15.94467 | 144.94738 | 31237 ft | 409 kts | 314° |
| 2026-05-06 21:04 | -15.92395 | 144.92709 | 31548 ft | 408 kts | 314° |
| 2026-05-06 21:04 | -15.90326 | 144.90682 | 31847 ft | 407 kts | 314° |
| 2026-05-06 21:04 | -15.88288 | 144.88685 | 32117 ft | 407 kts | 314° |
| 2026-05-06 21:05 | -15.86211 | 144.86643 | 32108 ft | 414 kts | 314° |
| 2026-05-06 21:05 | -15.81982 | 144.82487 | 32105 ft | 426 kts | 314° |
| 2026-05-06 21:06 | -15.77613 | 144.78196 | 32041 ft | 438 kts | 314° |
| 2026-05-06 21:06 | -15.73161 | 144.73826 | 31999 ft | 442 kts | 314° |
| 2026-05-06 21:07 | -15.68679 | 144.69431 | 32005 ft | 443 kts | 314° |
| 2026-05-06 21:07 | -15.64196 | 144.65037 | 31989 ft | 444 kts | 314° |
| 2026-05-06 21:08 | -15.59735 | 144.60663 | 31983 ft | 444 kts | 314° |
| 2026-05-06 21:08 | -15.55241 | 144.56266 | 31995 ft | 444 kts | 314° |
| 2026-05-06 21:09 | -15.50745 | 144.51869 | 31991 ft | 444 kts | 314° |
| 2026-05-06 21:09 | -15.46239 | 144.47463 | 31981 ft | 444 kts | 314° |
| 2026-05-06 21:10 | -15.41744 | 144.43070 | 31989 ft | 447 kts | 314° |
| 2026-05-06 21:10 | -15.37202 | 144.38634 | 31984 ft | 447 kts | 314° |
| 2026-05-06 21:11 | -15.33436 | 144.34960 | 31984 ft | 447 kts | 314° |
| 2026-05-06 21:11 | -15.28179 | 144.29831 | 31987 ft | 447 kts | 314° |
| 2026-05-06 21:12 | -15.24391 | 144.26138 | 31985 ft | 447 kts | 314° |
| 2026-05-06 21:12 | -15.19887 | 144.21750 | 31985 ft | 447 kts | 314° |
| 2026-05-06 21:13 | -15.15350 | 144.17332 | 31985 ft | 447 kts | 314° |
| 2026-05-06 21:13 | -15.10809 | 144.12915 | 31983 ft | 447 kts | 315° |
| 2026-05-06 21:14 | -15.06279 | 144.08506 | 31989 ft | 448 kts | 315° |
| 2026-05-06 21:14 | -15.01728 | 144.04084 | 31987 ft | 448 kts | 315° |
| 2026-05-06 21:15 | -14.97195 | 143.99696 | 31989 ft | 448 kts | 315° |
| 2026-05-06 21:15 | -14.92504 | 143.95423 | 31987 ft | 449 kts | 316° |
| 2026-05-06 21:16 | -14.87813 | 143.91144 | 31985 ft | 449 kts | 316° |
| 2026-05-06 21:16 | -14.83133 | 143.86871 | 31983 ft | 449 kts | 316° |
| 2026-05-06 21:17 | -14.78480 | 143.82620 | 31984 ft | 449 kts | 316° |
| 2026-05-06 21:17 | -14.73780 | 143.78327 | 31984 ft | 449 kts | 316° |
| 2026-05-06 21:18 | -14.69120 | 143.74071 | 31983 ft | 449 kts | 316° |
| 2026-05-06 21:18 | -14.64431 | 143.69792 | 31986 ft | 449 kts | 316° |
| 2026-05-06 21:19 | -14.59768 | 143.65538 | 31988 ft | 449 kts | 316° |
| 2026-05-06 21:19 | -14.55071 | 143.61255 | 31987 ft | 449 kts | 316° |
| 2026-05-06 21:20 | -14.50400 | 143.57000 | 31985 ft | 449 kts | 316° |
| 2026-05-06 21:20 | -14.45712 | 143.52732 | 31989 ft | 449 kts | 316° |
| 2026-05-06 21:21 | -14.41039 | 143.48479 | 31991 ft | 450 kts | 316° |
| 2026-05-06 21:21 | -14.36330 | 143.44195 | 31989 ft | 451 kts | 316° |
| 2026-05-06 21:22 | -14.31614 | 143.39909 | 31989 ft | 451 kts | 316° |
| 2026-05-06 21:22 | -14.26902 | 143.35628 | 31992 ft | 451 kts | 316° |
| 2026-05-06 21:23 | -14.22193 | 143.31353 | 31993 ft | 451 kts | 316° |
| 2026-05-06 21:23 | -14.17507 | 143.27100 | 31991 ft | 451 kts | 316° |
| 2026-05-06 21:24 | -14.12790 | 143.22824 | 31991 ft | 451 kts | 316° |
| 2026-05-06 21:24 | -14.08070 | 143.18547 | 31975 ft | 451 kts | 316° |
| 2026-05-06 21:25 | -14.03367 | 143.14288 | 31989 ft | 453 kts | 316° |
| 2026-05-06 21:25 | -13.98636 | 143.10005 | 31986 ft | 453 kts | 316° |
| 2026-05-06 21:26 | -13.93885 | 143.05706 | 31987 ft | 453 kts | 316° |
| 2026-05-06 21:26 | -13.89174 | 143.01445 | 31983 ft | 453 kts | 316° |
| 2026-05-06 21:27 | -13.84427 | 142.97155 | 31985 ft | 453 kts | 316° |
| 2026-05-06 21:27 | -13.79675 | 142.92863 | 31978 ft | 454 kts | 316° |
| 2026-05-06 21:28 | -13.74954 | 142.88600 | 31978 ft | 453 kts | 316° |
| 2026-05-06 21:28 | -13.70186 | 142.84299 | 31975 ft | 456 kts | 316° |
| 2026-05-06 21:28 | -13.67834 | 142.82178 | 31591 ft | 449 kts | 317° |
| 2026-05-06 21:29 | -13.65512 | 142.80087 | 31338 ft | 435 kts | 317° |
| 2026-05-06 21:29 | -13.63239 | 142.78039 | 30662 ft | 433 kts | 317° |
| 2026-05-06 21:29 | -13.60978 | 142.76003 | 30100 ft | 429 kts | 317° |
| 2026-05-06 21:29 | -13.58764 | 142.74009 | 29497 ft | 425 kts | 317° |
| 2026-05-06 21:30 | -13.56541 | 142.72007 | 28944 ft | 426 kts | 317° |
| 2026-05-06 21:30 | -13.54304 | 142.69995 | 28391 ft | 427 kts | 317° |
| 2026-05-06 21:30 | -13.52071 | 142.67987 | 27805 ft | 425 kts | 318° |
| 2026-05-06 21:30 | -13.49851 | 142.65990 | 27237 ft | 423 kts | 318° |
| 2026-05-06 21:31 | -13.47640 | 142.64001 | 26688 ft | 420 kts | 318° |
| 2026-05-06 21:31 | -13.45443 | 142.62026 | 26129 ft | 417 kts | 318° |
| 2026-05-06 21:31 | -13.43289 | 142.60090 | 25586 ft | 415 kts | 318° |
| 2026-05-06 21:31 | -13.41119 | 142.58141 | 25026 ft | 413 kts | 318° |
| 2026-05-06 21:32 | -13.38960 | 142.56202 | 24484 ft | 411 kts | 319° |
| 2026-05-06 21:32 | -13.34695 | 142.52313 | 23359 ft | 408 kts | 314° |
| 2026-05-06 21:32 | -13.32833 | 142.50134 | 22860 ft | 402 kts | 311° |
| 2026-05-06 21:33 | -13.30995 | 142.47973 | 22310 ft | 399 kts | 311° |
| 2026-05-06 21:33 | -13.29182 | 142.45867 | 21793 ft | 396 kts | 311° |
| 2026-05-06 21:33 | -13.27357 | 142.43759 | 21270 ft | 393 kts | 312° |
| 2026-05-06 21:33 | -13.25539 | 142.41666 | 20756 ft | 390 kts | 312° |
| 2026-05-06 21:34 | -13.23732 | 142.39592 | 20227 ft | 387 kts | 312° |
| 2026-05-06 21:34 | -13.21962 | 142.37566 | 19723 ft | 384 kts | 312° |
| 2026-05-06 21:34 | -13.20184 | 142.35532 | 19217 ft | 381 kts | 312° |
| 2026-05-06 21:34 | -13.18415 | 142.33511 | 18713 ft | 378 kts | 312° |
| 2026-05-06 21:35 | -13.16659 | 142.31505 | 18204 ft | 376 kts | 312° |
| 2026-05-06 21:35 | -13.14918 | 142.29518 | 17700 ft | 371 kts | 312° |
| 2026-05-06 21:35 | -13.13215 | 142.27574 | 17221 ft | 369 kts | 312° |
| 2026-05-06 21:35 | -13.11500 | 142.25618 | 16733 ft | 367 kts | 312° |
| 2026-05-06 21:36 | -13.09793 | 142.23673 | 16249 ft | 366 kts | 312° |
| 2026-05-06 21:36 | -13.08093 | 142.21736 | 15760 ft | 365 kts | 312° |
| 2026-05-06 21:36 | -13.06394 | 142.19799 | 15275 ft | 363 kts | 313° |
| 2026-05-06 21:36 | -13.04699 | 142.17870 | 14790 ft | 362 kts | 313° |
| 2026-05-06 21:37 | -13.03041 | 142.15981 | 14318 ft | 363 kts | 313° |
| 2026-05-06 21:37 | -13.01335 | 142.14041 | 13833 ft | 366 kts | 313° |
| 2026-05-06 21:37 | -12.99634 | 142.12104 | 13318 ft | 362 kts | 313° |
| 2026-05-06 21:37 | -12.97958 | 142.10198 | 12861 ft | 357 kts | 313° |
| 2026-05-06 21:38 | -12.96323 | 142.08338 | 12396 ft | 353 kts | 313° |
| 2026-05-06 21:38 | -12.94679 | 142.06469 | 11929 ft | 351 kts | 313° |
| 2026-05-06 21:38 | -12.93051 | 142.04617 | 11467 ft | 349 kts | 313° |
| 2026-05-06 21:38 | -12.91435 | 142.02780 | 11008 ft | 346 kts | 313° |
| 2026-05-06 21:39 | -12.89825 | 142.00949 | 10549 ft | 344 kts | 313° |
| 2026-05-06 21:39 | -12.88223 | 141.99129 | 10090 ft | 342 kts | 313° |
| 2026-05-06 21:39 | -12.86632 | 141.97322 | 9616 ft | 341 kts | 313° |
| 2026-05-06 21:39 | -12.85067 | 141.95544 | 9194 ft | 338 kts | 312° |
| 2026-05-06 21:40 | -12.83487 | 141.93750 | 8742 ft | 338 kts | 313° |
| 2026-05-06 21:40 | -12.81914 | 141.91964 | 8287 ft | 337 kts | 313° |
| 2026-05-06 21:40 | -12.80346 | 141.90184 | 7840 ft | 336 kts | 313° |
| 2026-05-06 21:40 | -12.78776 | 141.88401 | 7401 ft | 335 kts | 313° |
| 2026-05-06 21:41 | -12.77236 | 141.86655 | 7012 ft | 332 kts | 313° |
| 2026-05-06 21:41 | -12.75731 | 141.84947 | 6507 ft | 313 kts | 313° |
| 2026-05-06 21:41 | -12.74316 | 141.83342 | 6090 ft | 294 kts | 313° |
| 2026-05-06 21:41 | -12.72977 | 141.81824 | 5697 ft | 279 kts | 313° |
| 2026-05-06 21:42 | -12.71700 | 141.80373 | 5331 ft | 271 kts | 312° |
| 2026-05-06 21:42 | -12.70459 | 141.78965 | 5001 ft | 267 kts | 313° |
| 2026-05-06 21:42 | -12.69211 | 141.77551 | 4682 ft | 267 kts | 313° |
| 2026-05-06 21:42 | -12.67963 | 141.76142 | 4347 ft | 266 kts | 313° |
| 2026-05-06 21:43 | -12.66718 | 141.74731 | 3983 ft | 266 kts | 313° |
| 2026-05-06 21:43 | -12.65482 | 141.73331 | 3686 ft | 270 kts | 313° |
| 2026-05-06 21:43 | -12.64217 | 141.71902 | 3314 ft | 272 kts | 313° |
| 2026-05-06 21:43 | -12.62698 | 141.70783 | 2822 ft | 266 kts | 345° |
| 2026-05-06 21:44 | -12.60939 | 141.70706 | 2527 ft | 247 kts | 22° |
| 2026-05-06 21:44 | -12.59597 | 141.71623 | 2275 ft | 224 kts | 56° |
| 2026-05-06 21:44 | -12.58798 | 141.72927 | 2104 ft | 216 kts | 65° |
| 2026-05-06 21:44 | -12.58033 | 141.74248 | 1915 ft | 211 kts | 62° |
| 2026-05-06 21:45 | -12.57497 | 141.75583 | 1591 ft | 199 kts | 85° |
| 2026-05-06 21:45 | -12.57664 | 141.76902 | 1577 ft | 178 kts | 111° |
| 2026-05-06 21:45 | -12.58255 | 141.77954 | 1543 ft | 168 kts | 122° |
| 2026-05-06 21:45 | -12.58885 | 141.78915 | 1549 ft | 155 kts | 122° |
| 2026-05-06 21:46 | -12.59458 | 141.79796 | 1525 ft | 145 kts | 122° |
| 2026-05-06 21:46 | -12.60011 | 141.80642 | 1490 ft | 141 kts | 122° |
| 2026-05-06 21:46 | -12.60551 | 141.81473 | 1471 ft | 139 kts | 123° |
| 2026-05-06 21:46 | -12.61078 | 141.82267 | 1560 ft | 135 kts | 122° |
| 2026-05-06 21:47 | -12.61606 | 141.83069 | 1654 ft | 138 kts | 122° |
| 2026-05-06 21:47 | -12.62155 | 141.83891 | 1527 ft | 142 kts | 123° |
| 2026-05-06 21:47 | -12.62687 | 141.84685 | 1440 ft | 124 kts | 123° |
| 2026-05-06 21:47 | -12.63156 | 141.85390 | 1487 ft | 121 kts | 122° |
| 2026-05-06 21:48 | -12.63620 | 141.86121 | 1415 ft | 126 kts | 121° |
| 2026-05-06 21:48 | -12.64128 | 141.86858 | 1222 ft | 126 kts | 129° |
| 2026-05-06 21:48 | -12.64671 | 141.87568 | 1009 ft | 130 kts | 121° |
| 2026-05-06 21:48 | -12.65147 | 141.88354 | 830 ft | 131 kts | 123° |
| 2026-05-06 21:49 | -12.65685 | 141.89117 | 702 ft | 132 kts | 124° |
| 2026-05-06 21:49 | -12.66178 | 141.89902 | 546 ft | 133 kts | 123° |
| 2026-05-06 21:49 | -12.66696 | 141.90680 | 314 ft | 131 kts | 123° |
| 2026-05-06 21:49 | -12.67220 | 141.91464 | 135 ft | 134 kts | 124° |
| 2026-05-06 21:50 | -12.67705 | 141.92189 | 61 ft | 99 kts | 124° |
| 2026-05-06 21:50 | -12.67993 | 141.92623 | 70 ft | 55 kts | 124° |
| 2026-05-06 21:50 | -12.68116 | 141.92811 | 65 ft | 17 kts | 114° |
| 2026-05-06 21:50 | -12.68138 | 141.92864 | 72 ft | 3 kts | 179° |
| 2026-05-06 21:51 | -12.68144 | 141.92850 | 68 ft | 2 kts | 281° |
| 2026-05-06 21:51 | -12.68125 | 141.92816 | 70 ft | 9 kts | 306° |
| 2026-05-06 21:51 | -12.68075 | 141.92742 | 68 ft | 17 kts | 304° |
| 2026-05-06 21:51 | -12.67996 | 141.92624 | 65 ft | 23 kts | 304° |
| 2026-05-06 21:52 | -12.67928 | 141.92506 | 62 ft | 13 kts | 265° |
| 2026-05-06 21:52 | -12.67973 | 141.92449 | 67 ft | 12 kts | 244° |
| 2026-05-06 21:52 | -12.67949 | 141.92383 | 66 ft | 9 kts | 302° |
| 2026-05-06 21:52 | -12.67967 | 141.92358 | 65 ft | 2 kts | 207° |
| 2026-05-06 21:53 | -12.67983 | 141.92352 | 63 ft | 0 kts | 203° |